Time;durP1;ratioP1;P1;durP2;ratioP2;P2;SDS_P1;SDS_P2;PMS_P1;PMS_P2;Temp;Humidity;BMP_temperature;BMP_pressure;BME280_temperature;BME280_humidity;BME280_pressure;Samples;Min_cycle;Max_cycle;Signal;HPM_P1;HPM_P2
2022/05/27 00:00:20;;;;;;;3.80;2.20;;;14.90;74.10;;;13.83;78.43;96590.31;4991712;28;20086;-79
2022/05/27 00:02:47;;;;;;;3.00;1.98;;;14.90;74.20;;;13.79;78.83;96584.59;4988527;28;20463;-79
2022/05/27 00:05:13;;;;;;;3.63;2.30;;;14.80;74.60;;;13.75;78.67;96581.53;4979430;28;20053;-79
2022/05/27 00:07:39;;;;;;;4.10;2.30;;;14.80;74.80;;;13.75;78.99;96583.34;4977646;28;20043;-80
2022/05/27 00:10:06;;;;;;;3.20;2.05;;;14.80;74.70;;;13.74;78.34;96585.19;4967651;28;20082;-80
2022/05/27 00:12:32;;;;;;;3.30;2.45;;;14.80;74.70;;;13.71;78.59;96574.19;4964640;28;20034;-78
2022/05/27 00:14:58;;;;;;;3.40;2.50;;;14.80;75.10;;;13.68;79.23;96571.94;4976013;28;20043;-79
2022/05/27 00:17:23;;;;;;;3.47;2.10;;;14.70;75.00;;;13.65;80.09;96575.78;4981932;28;20038;-79
2022/05/27 00:19:49;;;;;;;2.88;2.25;;;14.70;75.10;;;13.64;79.52;96573.34;4983909;28;20050;-78
2022/05/27 00:22:15;;;;;;;3.55;2.60;;;14.70;75.20;;;13.61;79.34;96573.75;4983969;28;20038;-79
2022/05/27 00:24:41;;;;;;;3.17;2.50;;;14.70;75.20;;;13.58;80.51;96568.81;5001172;28;20117;-80
2022/05/27 00:27:10;;;;;;;2.85;2.13;;;14.60;75.40;;;13.55;80.03;96569.22;4981267;28;20035;-78
2022/05/27 00:29:36;;;;;;;3.00;2.40;;;14.60;75.50;;;13.52;79.79;96565.16;4949967;28;20039;-78
2022/05/27 00:32:03;;;;;;;5.85;2.35;;;14.60;75.50;;;13.49;80.75;96562.91;4982910;28;20031;-78
2022/05/27 00:34:29;;;;;;;5.57;2.92;;;14.60;75.50;;;13.46;80.21;96564.09;4984555;28;20083;-78
2022/05/27 00:36:55;;;;;;;4.47;2.70;;;14.60;75.70;;;13.44;80.57;96563.50;4969390;28;20065;-78
2022/05/27 00:39:20;;;;;;;4.55;2.60;;;14.60;75.80;;;13.44;80.49;96571.41;4943275;28;20046;-79
2022/05/27 00:41:46;;;;;;;2.97;2.30;;;14.60;75.90;;;13.40;81.56;96562.25;4977211;28;20089;-78
2022/05/27 00:44:12;;;;;;;4.03;2.25;;;14.50;76.10;;;13.39;81.72;96567.72;4940032;28;20051;-78
2022/05/27 00:46:40;;;;;;;3.30;2.38;;;14.60;76.30;;;13.37;81.64;96564.47;4992007;28;20031;-78
2022/05/27 00:49:14;;;;;;;4.05;2.60;;;14.50;76.30;;;13.35;81.66;96559.38;4979897;28;20023;-78
2022/05/27 00:51:49;;;;;;;4.65;2.92;;;14.40;76.20;;;13.32;82.11;96558.94;4948701;28;20038;-78
2022/05/27 00:54:22;;;;;;;3.50;2.53;;;14.40;76.40;;;13.28;81.93;96562.97;4979788;28;20053;-77
2022/05/27 00:56:53;;;;;;;4.07;2.75;;;14.40;76.40;;;13.26;82.35;96565.00;4982371;28;20047;-78
2022/05/27 00:59:41;;;;;;;6.07;2.65;;;14.40;76.60;;;13.23;82.05;96566.22;4969385;28;20035;-79
2022/05/27 01:02:07;;;;;;;5.03;2.88;;;14.30;76.90;;;13.17;81.55;96564.31;4970215;28;20047;-79
2022/05/27 01:04:33;;;;;;;4.20;2.78;;;14.30;77.10;;;13.13;82.30;96565.72;4962194;28;20126;-79
2022/05/27 01:06:59;;;;;;;4.88;2.53;;;14.20;77.00;;;13.12;82.35;96558.78;4960521;28;20402;-78
2022/05/27 01:09:25;;;;;;;5.70;2.78;;;14.20;77.30;;;13.10;82.23;96556.31;4974642;28;20041;-80
2022/05/27 01:12:37;;;;;;;4.03;2.33;;;14.20;77.30;;;13.09;83.93;96556.53;4955663;28;20035;-78
2022/05/27 01:15:22;;;;;;;5.22;2.67;;;14.20;77.30;;;13.06;84.29;96564.84;4980443;28;20058;-79
2022/05/27 01:18:17;;;;;;;3.75;2.60;;;14.20;77.40;;;13.03;83.94;96554.66;4984360;28;20041;-80
2022/05/27 01:20:49;;;;;;;3.72;2.35;;;14.10;77.60;;;12.98;83.20;96551.78;4980745;28;20101;-80
2022/05/27 01:24:00;;;;;;;4.03;2.72;;;14.10;77.50;;;12.95;84.24;96553.00;4984666;28;20030;-80
2022/05/27 01:26:50;;;;;;;5.05;2.65;;;14.10;77.60;;;12.91;84.77;96557.03;4983568;28;20034;-80
2022/05/27 01:29:53;;;;;;;5.60;2.70;;;14.00;77.60;;;12.88;84.76;96555.56;4974673;28;20027;-79
2022/05/27 01:32:40;;;;;;;3.45;2.30;;;14.00;77.70;;;12.86;84.80;96548.84;4979306;28;20070;-79
2022/05/27 01:35:27;;;;;;;3.45;2.60;;;14.00;77.70;;;12.82;84.53;96548.41;4957953;28;20035;-79
2022/05/27 01:38:10;;;;;;;4.38;2.80;;;14.00;77.70;;;12.81;84.39;96552.06;4960619;28;20035;-79
2022/05/27 01:41:16;;;;;;;5.55;3.10;;;14.00;77.70;;;12.80;84.79;96552.25;4977676;28;20117;-77
2022/05/27 01:43:53;;;;;;;5.15;2.83;;;13.90;77.70;;;12.77;84.07;96550.81;4979513;28;20042;-79
2022/05/27 01:46:25;;;;;;;4.57;2.80;;;13.90;77.70;;;12.75;84.22;96544.91;4976623;28;20027;-79
2022/05/27 01:49:22;;;;;;;4.93;3.10;;;13.90;77.60;;;12.75;84.30;96547.56;4963165;28;20069;-78
2022/05/27 01:52:16;;;;;;;4.53;2.85;;;13.90;77.60;;;12.72;85.32;96540.03;4965829;28;20038;-78
2022/05/27 01:55:03;;;;;;;3.53;2.58;;;13.90;77.80;;;12.69;85.36;96545.69;4977016;28;20035;-78
2022/05/27 01:57:42;;;;;;;4.15;2.88;;;13.80;78.00;;;12.67;85.41;96550.31;4973915;28;21138;-78
2022/05/27 02:00:20;;;;;;;3.60;2.70;;;13.80;78.10;;;12.65;85.33;96548.88;4966275;28;20035;-78
2022/05/27 02:03:07;;;;;;;4.90;2.60;;;13.80;78.10;;;12.63;84.67;96549.06;4961420;28;20038;-78
2022/05/27 02:05:52;;;;;;;4.80;2.60;;;13.70;77.80;;;12.60;84.98;96544.19;4975344;28;20122;-78
2022/05/27 02:08:21;;;;;;;4.80;2.97;;;13.70;77.80;;;12.53;84.19;96554.69;4962254;28;20754;-78
2022/05/27 02:10:59;;;;;;;3.20;2.75;;;13.60;78.10;;;12.50;84.61;96546.34;4996769;28;20035;-79
2022/05/27 02:13:30;;;;;;;3.00;2.50;;;13.60;78.10;;;12.42;85.00;96544.63;4972645;28;20074;-79
2022/05/27 02:15:56;;;;;;;5.28;2.38;;;13.50;78.40;;;12.38;84.95;96550.47;4982358;28;20075;-79
2022/05/27 02:18:46;;;;;;;6.18;2.47;;;13.50;78.70;;;12.35;85.28;96545.59;4959682;28;20036;-79
2022/05/27 02:21:28;;;;;;;10.37;8.60;;;13.40;78.70;;;12.34;86.12;96557.16;4993219;28;20055;-79
2022/05/27 02:24:13;;;;;;;4.68;2.67;;;13.50;78.90;;;12.34;86.21;96550.03;4972663;28;20085;-79
2022/05/27 02:26:43;;;;;;;3.55;2.58;;;13.50;78.70;;;12.33;85.22;96547.59;4966715;28;20093;-79
2022/05/27 02:29:14;;;;;;;3.03;2.30;;;13.50;78.80;;;12.30;85.67;96547.97;4966550;28;20183;-78
2022/05/27 02:31:45;;;;;;;5.47;4.72;;;13.50;79.10;;;12.32;85.93;96545.97;4987162;28;20046;-79
2022/05/27 02:37:25;;;;;;;5.22;3.03;;;13.40;79.20;;;12.30;86.63;96543.53;4969124;28;20045;-78
2022/05/27 02:39:53;;;;;;;4.57;2.97;;;13.50;79.10;;;12.31;86.18;96544.34;4984855;28;20103;-79
2022/05/27 02:42:28;;;;;;;5.13;3.22;;;13.50;79.00;;;12.35;86.27;96551.69;4982637;28;20035;-78
2022/05/27 02:45:28;;;;;;;3.58;2.22;;;13.60;79.00;;;12.36;86.86;96544.59;4965558;28;20039;-78
2022/05/27 02:48:18;;;;;;;4.05;2.60;;;13.50;79.00;;;12.30;87.19;96546.16;4976838;28;20071;-77
2022/05/27 02:50:58;;;;;;;3.92;2.10;;;13.40;79.30;;;12.25;86.83;96546.72;4968610;28;20058;-77
2022/05/27 02:53:32;;;;;;;5.22;2.00;;;13.40;79.30;;;12.24;86.60;96539.00;4965375;28;20051;-77
2022/05/27 02:56:18;;;;;;;3.92;2.10;;;13.40;79.40;;;12.24;87.30;96545.09;4964284;29;20035;-78
2022/05/27 02:58:44;;;;;;;3.35;2.15;;;13.40;79.50;;;12.22;86.57;96536.56;4983016;28;20043;-78
2022/05/27 03:01:10;;;;;;;5.43;2.40;;;13.40;79.50;;;12.26;86.72;96539.63;4949352;28;20069;-78
2022/05/27 03:03:35;;;;;;;4.00;2.20;;;13.50;79.60;;;12.26;87.20;96537.81;4980096;28;20045;-78
2022/05/27 03:06:31;;;;;;;5.05;2.58;;;13.50;79.70;;;12.29;88.19;96541.06;4961502;28;20119;-77
2022/05/27 03:09:18;;;;;;;3.20;2.38;;;13.50;79.80;;;12.27;88.31;96534.16;4976510;28;20050;-78
2022/05/27 03:12:05;;;;;;;4.53;2.67;;;13.50;79.90;;;12.31;88.89;96533.78;4964276;28;20099;-79
2022/05/27 03:14:48;;;;;;;4.35;2.30;;;13.50;79.80;;;12.27;88.33;96538.63;4983078;28;20054;-78
2022/05/27 03:17:34;;;;;;;5.05;2.78;;;13.50;80.00;;;12.31;88.24;96539.06;4967989;28;20097;-78
2022/05/27 03:20:18;;;;;;;5.88;3.67;;;13.50;79.90;;;12.35;88.64;96540.31;4981536;28;20095;-80
2022/05/27 03:23:05;;;;;;;6.55;4.18;;;13.60;79.90;;;12.40;88.42;96543.19;4966605;28;20039;-79
2022/05/27 03:25:59;;;;;;;3.40;2.25;;;13.60;80.00;;;12.44;89.20;96547.06;4983830;28;20131;-79
2022/05/27 03:28:45;;;;;;;3.05;2.55;;;13.70;79.60;;;12.48;89.32;96540.44;4948084;28;20035;-79
2022/05/27 03:31:42;;;;;;;7.53;4.13;;;13.80;79.70;;;12.55;88.64;96544.75;4974403;28;20041;-78
2022/05/27 03:34:32;;;;;;;5.80;4.28;;;13.90;79.40;;;12.60;88.41;96533.63;4990826;28;20046;-78
2022/05/27 03:37:12;;;;;;;3.92;2.60;;;13.90;79.20;;;12.61;88.23;96534.44;4961243;28;20049;-79
2022/05/27 03:39:51;;;;;;;5.05;3.72;;;13.90;79.00;;;12.63;88.18;96538.53;4973485;28;20042;-78
2022/05/27 03:42:19;;;;;;;4.00;2.88;;;13.90;79.20;;;12.66;87.56;96537.31;4962489;28;20039;-78
2022/05/27 03:45:16;;;;;;;3.78;2.28;;;14.00;79.10;;;12.70;88.41;96531.50;4960678;28;20054;-78
2022/05/27 03:47:42;;;;;;;4.68;2.35;;;14.00;78.80;;;12.68;87.60;96540.63;4994368;28;20034;-79
2022/05/27 03:50:10;;;;;;;2.20;1.77;;;13.90;78.90;;;12.68;87.51;96533.50;4980868;28;20122;-79
2022/05/27 03:52:44;;;;;;;4.05;2.20;;;13.90;79.00;;;12.65;88.19;96530.41;4957757;28;20411;-77
2022/05/27 03:55:12;;;;;;;3.08;2.33;;;13.90;79.20;;;12.64;87.89;96532.22;4977625;28;20030;-77
2022/05/27 03:57:38;;;;;;;5.00;2.20;;;13.90;79.10;;;12.64;87.97;96540.16;4966448;28;20045;-78
2022/05/27 04:00:05;;;;;;;3.75;2.17;;;13.90;79.30;;;12.65;87.79;96533.88;4968164;28;20651;-78
2022/05/27 04:02:31;;;;;;;4.57;2.00;;;13.90;79.10;;;12.63;87.34;96532.44;4979585;28;20113;-78
2022/05/27 04:04:56;;;;;;;3.85;2.30;;;13.90;79.20;;;12.64;87.95;96539.34;4951604;28;20042;-78
2022/05/27 04:07:22;;;;;;;4.70;2.13;;;13.90;79.30;;;12.65;87.97;96541.78;4943111;28;20038;-78
2022/05/27 04:09:48;;;;;;;5.93;2.00;;;13.90;79.30;;;12.65;87.61;96539.13;4995035;28;20030;-78
2022/05/27 04:12:13;;;;;;;4.25;1.90;;;13.90;79.40;;;12.66;88.31;96532.84;4979881;28;20450;-78
2022/05/27 04:14:39;;;;;;;4.15;2.10;;;14.00;79.30;;;12.68;87.78;96538.78;4990435;28;20540;-78
2022/05/27 04:19:49;;;;;;;5.80;1.90;;;14.00;79.20;;;12.71;88.17;96532.31;4982387;28;20073;-78
2022/05/27 04:22:15;;;;;;;2.50;1.70;;;14.00;79.00;;;12.73;87.89;96532.94;4983276;28;20035;-80
2022/05/27 04:24:41;;;;;;;4.55;2.20;;;14.10;78.90;;;12.77;87.57;96532.34;4977264;28;20450;-78
2022/05/27 04:27:12;;;;;;;4.03;1.90;;;14.10;78.50;;;12.81;87.96;96536.22;4960306;28;20035;-77
2022/05/27 04:29:42;;;;;;;;;;;14.20;78.60;;;12.84;87.95;96535.84;4958770;28;20117;-77
2022/05/27 04:32:08;;;;;;;3.70;2.03;;;14.20;78.30;;;12.86;87.04;96530.38;4959861;28;19968;-77
2022/05/27 04:34:34;;;;;;;3.83;2.42;;;14.20;78.00;;;12.91;86.72;96530.63;4965354;28;20098;-75
2022/05/27 04:37:00;;;;;;;4.07;2.42;;;14.30;77.80;;;12.96;86.54;96532.69;4981350;28;20031;-79
2022/05/27 04:39:26;;;;;;;2.92;2.20;;;14.40;77.50;;;13.05;87.12;96534.97;4995217;28;20031;-79
2022/05/27 04:41:51;;;;;;;2.85;1.75;;;14.60;77.60;;;13.14;87.06;96536.47;4980604;28;20062;-78
2022/05/27 04:44:17;;;;;;;3.95;1.75;;;14.60;76.90;;;13.22;86.76;96532.06;4971059;28;20075;-77
2022/05/27 04:46:45;;;;;;;4.97;2.08;;;14.70;76.70;;;13.30;86.05;96531.91;4979423;28;20231;-80
2022/05/27 04:49:50;;;;;;;3.22;1.75;;;14.90;76.40;;;13.37;85.37;96527.47;4978219;28;20043;-78
2022/05/27 04:51:58;;;;;;;5.18;1.90;;;14.90;76.20;;;13.46;85.47;96529.75;4964777;28;20038;-78
2022/05/27 04:54:23;;;;;;;4.32;1.77;;;15.10;76.10;;;13.56;85.64;96523.28;4978151;28;20102;-77
2022/05/27 04:56:49;;;;;;;2.28;1.50;;;15.20;75.70;;;13.66;85.07;96536.97;4980542;28;20098;-77
2022/05/27 04:59:15;;;;;;;2.10;1.50;;;15.30;74.90;;;13.75;85.16;96533.94;4973612;28;20087;-72
2022/05/27 05:01:41;;;;;;;2.85;1.67;;;15.40;74.60;;;13.82;85.47;96518.09;4968303;28;20083;-66
2022/05/27 05:04:06;;;;;;;3.13;1.60;;;15.50;74.50;;;13.88;84.69;96527.88;4949308;28;20132;-68
2022/05/27 05:06:32;;;;;;;4.25;1.60;;;15.50;74.10;;;13.93;84.37;96520.16;4966418;28;20037;-67
2022/05/27 05:08:58;;;;;;;2.13;1.50;;;15.50;74.20;;;13.98;84.49;96522.19;4967545;28;20035;-71
2022/05/27 05:11:23;;;;;;;1.90;1.50;;;15.60;74.10;;;14.02;84.07;96518.94;4965354;28;20600;-71
2022/05/27 05:13:49;;;;;;;3.55;1.75;;;15.60;74.00;;;14.06;83.24;96522.03;4968055;28;20035;-67
2022/05/27 05:16:15;;;;;;;2.35;1.60;;;15.60;73.60;;;14.11;83.02;96532.81;4964501;28;20090;-67
2022/05/27 05:18:41;;;;;;;2.97;1.52;;;15.70;73.50;;;14.16;82.18;96532.22;4954096;28;20103;-77
2022/05/27 05:21:06;;;;;;;2.67;1.40;;;15.70;73.70;;;14.21;82.46;96527.13;4942731;29;20038;-78
2022/05/27 05:23:32;;;;;;;4.07;1.58;;;15.80;73.20;;;14.27;82.09;96532.47;4976769;28;20093;-76
2022/05/27 05:25:58;;;;;;;3.50;2.55;;;16.00;73.20;;;14.35;82.61;96528.78;4943955;28;20042;-75
2022/05/27 05:28:24;;;;;;;4.30;2.38;;;16.10;73.00;;;14.41;81.19;96523.50;4977612;28;20038;-76
2022/05/27 05:30:49;;;;;;;4.63;2.50;;;16.10;72.20;;;14.51;81.86;96517.03;4976946;28;20054;-77
2022/05/27 05:33:15;;;;;;;2.75;1.48;;;16.30;72.00;;;14.57;80.97;96519.69;4959148;28;20502;-77
2022/05/27 05:35:41;;;;;;;3.28;1.40;;;16.30;71.40;;;14.65;81.05;96519.47;4960225;28;20027;-77
2022/05/27 05:38:07;;;;;;;2.38;1.20;;;16.50;71.20;;;14.76;79.75;96517.25;4959892;28;20101;-76
2022/05/27 05:40:32;;;;;;;5.20;1.10;;;16.60;70.30;;;14.85;80.15;96513.34;4976843;28;20039;-77
2022/05/27 05:43:01;;;;;;;3.90;1.67;;;16.60;70.00;;;14.96;78.79;96515.38;4991265;28;20035;-75
2022/05/27 05:45:27;;;;;;;4.20;1.35;;;16.80;69.50;;;15.06;78.51;96520.25;4960938;28;20884;-76
2022/05/27 05:47:52;;;;;;;1.85;1.40;;;16.80;68.80;;;15.18;78.50;96508.81;4975767;28;20041;-74
2022/05/27 05:50:18;;;;;;;1.75;1.33;;;17.00;69.30;;;15.32;79.54;96505.09;4970227;28;20043;-76
2022/05/27 05:52:45;;;;;;;2.70;1.30;;;17.10;68.80;;;15.50;78.43;96517.69;4971858;28;20502;-75
2022/05/27 05:55:12;;;;;;;1.85;1.15;;;17.30;68.20;;;15.66;78.09;96511.16;4938198;28;20082;-75
2022/05/27 05:57:42;;;;;;;4.55;1.60;;;17.60;67.40;;;15.87;76.73;96518.81;4969916;28;20105;-76
2022/05/27 06:00:11;;;;;;;2.47;1.10;;;17.80;66.60;;;16.06;75.79;96505.63;4953387;28;20058;-75
2022/05/27 06:02:36;;;;;;;3.25;1.42;;;18.00;65.50;;;16.27;75.13;96513.25;4954663;28;20081;-75
2022/05/27 06:05:03;;;;;;;3.83;1.35;;;18.10;65.10;;;16.47;75.07;96507.81;4952062;28;20456;-77
2022/05/27 06:07:30;;;;;;;4.00;1.17;;;18.30;64.80;;;16.68;74.55;96506.66;4969132;28;20058;-68
2022/05/27 06:09:56;;;;;;;3.05;1.23;;;18.50;64.10;;;16.84;73.28;96504.28;4947498;28;20036;-71
2022/05/27 06:12:23;;;;;;;2.58;1.15;;;18.60;63.40;;;17.01;73.47;96499.22;4965243;28;20527;-72
2022/05/27 06:14:50;;;;;;;2.97;1.15;;;18.80;63.30;;;17.20;71.97;96504.53;4968437;28;20043;-70
2022/05/27 06:17:16;;;;;;;2.47;1.10;;;19.00;60.30;;;17.33;70.82;96497.22;4929816;28;20043;-66
2022/05/27 06:19:42;;;;;;;2.63;1.00;;;19.00;60.40;;;17.49;70.16;96495.03;4966505;28;20510;-69
2022/05/27 06:22:08;;;;;;;3.03;1.92;;;19.10;59.50;;;17.65;68.89;96495.25;4949241;28;20047;-66
2022/05/27 06:24:33;;;;;;;9.35;3.03;;;19.40;59.50;;;17.84;68.81;96489.91;4965615;28;20058;-66
2022/05/27 06:26:59;;;;;;;2.90;1.50;;;19.60;58.70;;;17.95;67.93;96503.28;4951056;28;20039;-66
2022/05/27 06:35:14;;;;;;;3.42;1.00;;;20.20;56.40;;;18.42;66.48;96505.28;4862675;29;20184;-67
2022/05/27 06:37:39;;;;;;;2.40;1.33;;;20.40;56.00;;;18.54;65.19;96503.44;4911760;28;20034;-66
2022/05/27 06:40:06;;;;;;;1.33;1.00;;;20.50;55.40;;;18.70;64.57;96497.47;4950446;28;20083;-69
2022/05/27 06:42:32;;;;;;;2.50;0.90;;;20.70;55.20;;;18.83;65.47;96494.59;4966175;28;20047;-68
2022/05/27 06:44:58;;;;;;;2.35;1.00;;;21.00;54.50;;;19.02;64.00;96494.50;4966895;28;20070;-73
2022/05/27 06:47:23;;;;;;;2.42;0.88;;;21.30;53.90;;;19.15;63.01;96489.72;4949343;28;20030;-73
2022/05/27 06:49:49;;;;;;;2.80;0.98;;;21.30;52.70;;;19.26;63.73;96486.22;4954543;28;20035;-73
2022/05/27 06:52:15;;;;;;;2.55;1.20;;;21.40;52.90;;;19.38;62.77;96485.38;4979169;28;20055;-78
2022/05/27 06:54:42;;;;;;;2.50;0.85;;;21.60;52.60;;;19.52;62.38;96484.09;4956470;28;20058;-70
2022/05/27 06:57:07;;;;;;;5.75;1.30;;;22.00;51.80;;;19.69;62.24;96490.34;4968373;28;20454;-74
2022/05/27 06:59:34;;;;;;;3.53;1.38;;;22.30;51.50;;;19.84;62.02;96479.16;4951972;28;20038;-72
2022/05/27 07:01:59;;;;;;;2.67;1.08;;;22.40;50.00;;;20.02;61.99;96478.97;4968334;28;20038;-72
2022/05/27 07:04:25;;;;;;;2.90;1.00;;;22.60;49.90;;;20.15;60.75;96476.00;4955746;28;20038;-73
2022/05/27 07:06:51;;;;;;;4.40;1.00;;;22.70;49.40;;;20.31;60.54;96477.06;4964893;28;20564;-73
2022/05/27 07:09:21;;;;;;;2.83;1.38;;;22.80;48.30;;;20.46;58.73;96469.34;4944336;28;20039;-73
2022/05/27 07:11:49;;;;;;;2.35;0.80;;;22.90;48.60;;;20.62;59.48;96472.28;4953440;28;20024;-72
2022/05/27 07:14:15;;;;;;;3.05;1.25;;;23.10;48.70;;;20.83;58.83;96470.75;4953118;28;20054;-73
2022/05/27 07:16:42;;;;;;;11.27;5.95;;;23.50;47.20;;;21.05;58.69;96471.59;4954040;28;20498;-72
2022/05/27 07:19:08;;;;;;;4.03;1.98;;;23.80;47.90;;;21.25;57.76;96465.72;4952279;28;20043;-73
2022/05/27 07:21:41;;;;;;;4.78;1.20;;;23.70;47.50;;;21.47;56.24;96457.72;4972097;28;20428;-73
2022/05/27 07:24:11;;;;;;;4.63;1.33;;;24.20;47.10;;;21.66;57.03;96451.78;4956622;28;20031;-73
2022/05/27 07:26:37;;;;;;;6.10;1.83;;;24.30;46.10;;;21.79;55.90;96461.31;4956420;28;20031;-72
2022/05/27 07:29:07;;;;;;;3.90;1.58;;;24.30;45.30;;;21.95;56.13;96455.09;4971915;28;20051;-73
2022/05/27 07:31:34;;;;;;;9.50;3.53;;;24.60;45.40;;;22.18;55.69;96448.66;4956706;28;20030;-71
2022/05/27 07:34:00;;;;;;;7.28;2.20;;;25.00;45.00;;;22.43;54.08;96448.06;4944286;29;20098;-73
2022/05/27 07:36:26;;;;;;;3.15;1.50;;;25.10;43.30;;;22.69;53.62;96442.91;4982166;28;20506;-73
2022/05/27 07:38:52;;;;;;;5.20;1.00;;;25.40;43.00;;;22.73;52.83;96444.00;4974537;28;20112;-73
2022/05/27 07:41:22;;;;;;;1.70;0.95;;;24.90;44.10;;;22.75;51.39;96433.81;4965155;28;20054;-73
2022/05/27 07:43:47;;;;;;;3.30;0.95;;;24.70;44.10;;;22.80;52.43;96433.84;4960709;28;20035;-74
2022/05/27 07:46:13;;;;;;;2.65;1.10;;;25.10;43.80;;;22.89;51.67;96426.97;4952349;28;20034;-74
2022/05/27 07:48:39;;;;;;;3.60;1.02;;;25.30;43.20;;;23.01;50.81;96429.44;4957462;28;20027;-73
2022/05/27 07:51:05;;;;;;;4.15;0.90;;;25.20;42.90;;;23.21;51.22;96425.00;4939892;28;20031;-73
2022/05/27 07:53:31;;;;;;;4.72;1.38;;;25.60;43.20;;;23.45;50.93;96421.88;4966502;28;20054;-72
2022/05/27 07:59:37;;;;;;;2.67;0.77;;;25.90;42.00;;;23.68;49.21;96429.53;4959574;28;20053;-67
2022/05/27 08:02:03;;;;;;;2.63;0.82;;;25.60;41.00;;;23.63;49.03;96432.19;4984883;28;20566;-68
2022/05/27 08:04:29;;;;;;;2.40;0.80;;;25.50;42.30;;;23.67;48.17;96424.41;4970843;28;20043;-65
2022/05/27 08:06:55;;;;;;;3.20;0.80;;;25.80;41.40;;;23.70;48.57;96440.81;4970992;28;20075;-67
2022/05/27 08:09:21;;;;;;;2.40;1.10;;;26.00;40.90;;;23.68;47.75;96424.16;4951869;28;20031;-68
2022/05/27 08:11:46;;;;;;;3.22;1.10;;;26.00;41.00;;;23.77;48.57;96427.16;4969115;28;20090;-67
2022/05/27 08:14:12;;;;;;;4.47;1.10;;;26.40;40.90;;;23.87;48.01;96416.41;4969249;28;20035;-76
2022/05/27 08:16:39;;;;;;;4.50;0.85;;;26.10;40.00;;;23.88;46.86;96420.72;4963211;28;20043;-73
2022/05/27 08:19:05;;;;;;;3.17;1.00;;;26.00;40.70;;;23.93;47.36;96411.84;4981392;28;20078;-72
2022/05/27 08:21:36;;;;;;;2.10;0.75;;;26.20;39.90;;;24.10;47.13;96418.59;4950393;28;20163;-72
2022/05/27 08:24:01;;;;;;;;;;;26.70;39.70;;;24.35;45.51;96420.53;4970597;28;21092;-72
2022/05/27 08:26:27;;;;;;;2.60;0.70;;;27.00;39.10;;;24.51;47.36;96423.25;4973393;28;19936;-72
2022/05/27 08:28:54;;;;;;;1.63;0.90;;;27.10;39.30;;;24.64;46.51;96414.59;4952621;28;20466;-72
2022/05/27 08:31:21;;;;;;;2.05;1.00;;;26.60;39.50;;;24.76;46.30;96412.44;4967643;28;20035;-72
2022/05/27 08:39:16;;;;;;;3.47;0.88;;;26.90;38.90;;;24.97;45.00;96419.41;4950240;28;20041;-72
2022/05/27 08:41:57;;;;;;;7.10;1.00;;;26.60;39.70;;;24.89;44.29;96414.56;4945984;28;20035;-72
2022/05/27 08:44:25;;;;;;;4.97;1.08;;;26.90;40.30;;;25.10;44.86;96417.25;4963830;28;20032;-70
2022/05/27 08:47:09;;;;;;;2.40;1.08;;;27.80;38.50;;;25.31;43.72;96413.41;4978204;28;20063;-69
2022/05/27 08:49:42;;;;;;;2.40;0.77;;;28.00;37.90;;;25.60;43.49;96411.69;4944940;28;20118;-65
2022/05/27 08:52:38;;;;;;;3.60;0.80;;;28.50;37.10;;;25.93;42.35;96417.47;4967265;28;20113;-65
2022/05/27 09:01:35;;;;;;;2.13;0.85;;;28.10;37.20;;;26.15;43.22;96412.47;4955299;28;20093;-65
2022/05/27 09:04:16;;;;;;;2.88;0.80;;;28.80;36.70;;;26.34;42.73;96415.34;4953167;28;20155;-70
2022/05/27 09:07:02;;;;;;;2.58;0.80;;;29.00;37.10;;;26.53;41.89;96402.78;4967965;28;20034;-71
2022/05/27 09:09:28;;;;;;;1.83;0.93;;;29.30;35.50;;;26.47;42.15;96405.78;4950707;28;20474;-72
2022/05/27 09:12:35;;;;;;;3.65;1.00;;;28.70;35.40;;;26.46;40.44;96396.09;4966965;28;20073;-73
2022/05/27 09:15:17;;;;;;;1.40;0.82;;;28.70;35.20;;;26.09;41.72;96397.44;4965105;28;20391;-72
2022/05/27 09:18:20;;;;;;;3.13;0.63;;;27.50;37.50;;;25.79;41.45;96392.22;4950700;28;20132;-72
2022/05/27 09:21:57;;;;;;;2.65;0.70;;;27.40;39.00;;;25.74;41.98;96386.84;4947702;28;20030;-72
2022/05/27 09:24:38;;;;;;;2.90;0.98;;;27.80;38.00;;;25.49;42.72;96388.56;4919725;29;20062;-73
2022/05/27 09:27:20;;;;;;;4.50;1.02;;;27.20;39.20;;;25.30;42.63;96390.25;4961488;28;20035;-68
2022/05/27 09:30:05;;;;;;;2.45;0.70;;;27.10;39.60;;;25.39;42.83;96383.25;4953126;28;20093;-66
2022/05/27 09:32:44;;;;;;;1.80;0.70;;;27.70;38.50;;;25.36;42.57;96373.03;4960588;28;20121;-66
2022/05/27 09:35:19;;;;;;;2.35;0.80;;;27.90;37.70;;;25.54;42.30;96375.06;4968959;28;20046;-66
2022/05/27 09:37:48;;;;;;;0.65;0.50;;;28.50;36.80;;;25.63;42.41;96378.81;4951009;28;20038;-66
2022/05/27 09:40:48;;;;;;;2.03;1.05;;;28.10;37.70;;;25.72;41.91;96378.25;4948572;28;20031;-67
2022/05/27 09:43:20;;;;;;;2.55;0.90;;;28.40;37.10;;;25.87;42.56;96370.09;4959261;28;20063;-73
2022/05/27 09:45:51;;;;;;;4.97;0.85;;;28.60;37.40;;;26.08;41.93;96379.66;4961183;28;20047;-73
2022/05/27 09:48:17;;;;;;;2.22;1.00;;;28.60;36.70;;;26.15;42.48;96372.03;4950424;28;20042;-73
2022/05/27 09:50:47;;;;;;;2.65;0.70;;;29.00;36.80;;;26.49;41.75;96376.66;4961697;28;20451;-78
2022/05/27 09:53:22;;;;;;;2.90;0.80;;;30.00;35.90;;;26.78;40.62;96372.06;4942910;28;20035;-71
2022/05/27 09:55:49;;;;;;;3.33;0.90;;;30.40;34.10;;;27.21;41.10;96369.47;4966008;28;20039;-70
2022/05/27 09:58:21;;;;;;;3.05;0.80;;;31.20;34.10;;;27.53;41.87;96367.97;4962348;28;20031;-70
2022/05/27 10:00:50;;;;;;;1.35;0.60;;;31.00;33.50;;;27.53;41.07;96365.28;4932682;28;20047;-69
2022/05/27 10:03:32;;;;;;;1.90;0.80;;;30.10;34.70;;;27.19;39.57;96355.44;4934312;28;20038;-69
2022/05/27 10:06:17;;;;;;;3.38;0.60;;;29.20;35.30;;;27.22;40.14;96357.56;4963301;28;20031;-69
2022/05/27 10:08:49;;;;;;;1.75;1.00;;;30.30;34.50;;;27.67;39.94;96350.78;4973822;28;20035;-72
2022/05/27 10:11:22;;;;;;;1.48;0.73;;;31.40;33.60;;;27.86;39.04;96350.00;4964644;28;20101;-71
2022/05/27 10:14:10;;;;;;;4.28;0.80;;;30.50;34.00;;;27.70;38.38;96354.81;4961366;28;20105;-71
2022/05/27 10:16:41;;;;;;;1.77;0.60;;;29.50;35.20;;;27.32;39.09;96349.31;4959063;28;20086;-71
2022/05/27 10:19:27;;;;;;;4.15;1.00;;;28.80;35.60;;;26.82;38.91;96350.69;4961313;28;20686;-71
2022/05/27 10:22:05;;;;;;;2.25;0.95;;;28.00;37.10;;;26.49;39.59;96357.78;4948465;28;20045;-72
2022/05/27 10:24:42;;;;;;;3.00;0.80;;;28.10;37.10;;;26.31;40.40;96350.34;4931288;28;20063;-70
2022/05/27 10:27:20;;;;;;;2.45;0.80;;;27.80;38.50;;;26.19;39.89;96356.91;4935365;28;20039;-72
2022/05/27 10:29:58;;;;;;;1.48;0.75;;;28.00;37.30;;;26.00;40.47;96349.75;4963714;28;20507;-71
2022/05/27 10:32:37;;;;;;;3.55;0.90;;;27.60;38.00;;;25.85;41.67;96358.78;4967437;28;20094;-71
2022/05/27 10:35:31;;;;;;;3.88;0.90;;;27.80;38.60;;;25.81;41.22;96357.72;4969603;28;20047;-72
2022/05/27 10:38:41;;;;;;;6.13;1.00;;;28.00;37.80;;;26.23;41.29;96355.25;4956863;28;20027;-72
2022/05/27 10:42:07;;;;;;;1.80;0.60;;;28.80;37.00;;;26.41;40.29;96339.47;4965613;28;20049;-72
2022/05/27 10:45:06;;;;;;;2.55;1.02;;;28.80;35.80;;;26.35;40.21;96337.94;4958888;28;20062;-70
2022/05/27 10:48:13;;;;;;;6.13;1.10;;;28.10;37.20;;;26.10;41.30;96342.41;4968815;28;20035;-72
2022/05/27 10:51:07;;;;;;;1.45;0.80;;;27.80;38.70;;;26.54;40.82;96336.13;4967716;28;20805;-73
2022/05/27 10:53:45;;;;;;;3.45;0.90;;;28.80;37.60;;;26.91;40.33;96326.56;4951178;28;20126;-71
2022/05/27 11:02:03;;;;;;;3.90;1.00;;;29.80;35.40;;;27.71;38.79;96326.69;4957196;28;20035;-72
2022/05/27 11:02:46;;;;;;;2.05;0.80;;;32.10;32.70;;;29.31;36.77;96319.03;4967239;28;20105;-72
2022/05/27 11:05:38;;;;;;;0.98;0.60;;;32.70;31.10;;;30.09;35.57;96315.16;4969989;28;20409;-71
2022/05/27 11:08:24;;;;;;;4.07;0.70;;;33.60;29.70;;;30.68;34.27;96305.00;4970085;28;20027;-73
2022/05/27 11:11:02;;;;;;;3.47;0.80;;;34.10;29.40;;;31.16;34.21;96310.44;4966987;28;20038;-72
2022/05/27 11:16:48;;;;;;;1.25;0.90;;;33.70;28.90;;;31.52;33.17;96295.84;4967921;28;20045;-73
2022/05/27 11:19:34;;;;;;;2.92;0.90;;;34.10;28.70;;;31.90;32.63;96291.38;4967987;28;20038;-71
2022/05/27 11:22:31;;;;;;;2.78;1.00;;;34.80;28.40;;;32.35;32.93;96292.97;4965548;28;20039;-69